Heber Springs, AR (72543)

8:56 PM CDT on September 19, 2014 (GMT -0500)
Greers Ferry Lake | Change Station
CLOSE
Current Station
Personal Weather Station
Location: Heber Springs, AR
Elevation: 502 ft
Nearby Weather Stations

Elev 502 ft 35.53 °N, 92.04 °W | Updated 24 seconds ago

Clear
Clear
74.0 °F
Feels Like 75 °F
N
0.0
Wind Variable Wind from NE
Gusts 0.0 mph

Today
High -- | Low -- °F
--% Chance of Precip.
Yesterday
High -- | Low -- °F
Precip. -- in
6:53 AM 7:09 PM
Waning Crescent, 15% visible
Pressure 30.01 in
Visibility 5.0 miles
Clouds Few 4000 ft
Heat Index 75 °F
Dew Point 67 °F
Humidity 78%
Rainfall 0.00 in
Snow Depth Not available.
UV 0 out of 12
Pollen 10.10 out of 12
Air Quality Not available.
Flu Activity Not available.
METAR KCCA 200135Z AUTO 00000KT 5SM BR FEW040 22/21 A3001 RMK AO2

More Conditions Fewer Conditions

Pressure 30.01 in
Visibility 5.0 miles
Clouds Few 4000 ft
Heat Index 75 °F
Dew Point 67 °F
Humidity 78%
Rainfall 0.00 in
Snow Depth Not available.
UV 0 out of 12
Pollen 10.10 out of 12
Air Quality Not available.
Flu Activity Not available.
METAR KCCA 200135Z AUTO 00000KT 5SM BR FEW040 22/21 A3001 RMK AO2

More Conditions Fewer Conditions

10-Day Weather Forecast

Almanac

Astronomy

Sep. 19, 2014 Rise Set
Actual Time 6:53 AM CDT 7:09 PM CDT
Civil Twilight 6:28 AM CDT 7:34 PM CDT
Nautical Twilight 5:58 AM CDT 8:04 PM CDT
Astronomical Twilight 5:28 AM CDT 8:34 PM CDT
Moon 2:46 AM CDT (9/19) 4:32 PM CDT (9/19)
Length of Visible Light 13h 06m
Length of Day
12h 15m
Tomorrow will be 2m 14s shorter.
Waning Crescent, 15% of the Moon is Illuminated
Today
Waning Crescent
Sep 24
New
Oct 1
First Quarter
Oct 8
Full
Oct 15
Last Quarter

Today's Extremes

State Highs State Lows

Community

WunderPhotos

Upload Photos

1,754,760 photos uploaded!

WunderBlogs® & News

Nearby

Snow Depth

Station Depth Elevation
No new snow has been reported.

Earthquake Activity

City Distance Mag. Time & Date
No recent earthquake activity has been reported nearby.
Minimum magnitude displayed is 2.5.

Coastal Water Temperatures

Place Temperature
No Stations Reporting

Nearby Weather Stations